sensor_id;sensor_type;location;lat;lon;timestamp;temperature;humidity
78297;DHT22;67555;47.660;19.622;2023-09-30T00:01:01;12.40;74.20
78297;DHT22;67555;47.660;19.622;2023-09-30T00:03:27;12.30;74.40
78297;DHT22;67555;47.660;19.622;2023-09-30T00:05:53;12.30;74.50
78297;DHT22;67555;47.660;19.622;2023-09-30T00:08:20;12.30;74.40
78297;DHT22;67555;47.660;19.622;2023-09-30T00:10:46;12.30;74.30
78297;DHT22;67555;47.660;19.622;2023-09-30T00:13:12;12.30;74.40
78297;DHT22;67555;47.660;19.622;2023-09-30T00:15:38;12.30;74.40
78297;DHT22;67555;47.660;19.622;2023-09-30T00:18:05;12.30;74.40
78297;DHT22;67555;47.660;19.622;2023-09-30T00:20:31;12.30;74.20
78297;DHT22;67555;47.660;19.622;2023-09-30T00:22:57;12.40;74.00
78297;DHT22;67555;47.660;19.622;2023-09-30T00:25:23;12.50;73.90
78297;DHT22;67555;47.660;19.622;2023-09-30T00:27:49;12.50;73.80
78297;DHT22;67555;47.660;19.622;2023-09-30T00:30:15;12.50;73.50
78297;DHT22;67555;47.660;19.622;2023-09-30T00:32:42;12.60;73.40
78297;DHT22;67555;47.660;19.622;2023-09-30T00:35:08;12.60;73.50
78297;DHT22;67555;47.660;19.622;2023-09-30T00:37:39;12.50;73.60
78297;DHT22;67555;47.660;19.622;2023-09-30T00:40:06;12.50;73.80
78297;DHT22;67555;47.660;19.622;2023-09-30T00:42:33;12.40;73.90
78297;DHT22;67555;47.660;19.622;2023-09-30T00:44:58;12.40;73.80
78297;DHT22;67555;47.660;19.622;2023-09-30T00:47:26;12.50;73.70
78297;DHT22;67555;47.660;19.622;2023-09-30T00:49:52;12.50;73.70
78297;DHT22;67555;47.660;19.622;2023-09-30T00:52:19;12.30;73.90
78297;DHT22;67555;47.660;19.622;2023-09-30T00:54:47;12.30;74.00
78297;DHT22;67555;47.660;19.622;2023-09-30T00:57:13;12.20;74.00
78297;DHT22;67555;47.660;19.622;2023-09-30T00:59:42;12.20;74.00
78297;DHT22;67555;47.660;19.622;2023-09-30T01:02:08;12.30;73.90
78297;DHT22;67555;47.660;19.622;2023-09-30T01:04:34;12.30;73.80
78297;DHT22;67555;47.660;19.622;2023-09-30T01:07:02;12.30;73.80
78297;DHT22;67555;47.660;19.622;2023-09-30T01:09:28;12.30;73.80
78297;DHT22;67555;47.660;19.622;2023-09-30T01:11:53;12.30;73.80
78297;DHT22;67555;47.660;19.622;2023-09-30T01:14:30;12.30;73.80
78297;DHT22;67555;47.660;19.622;2023-09-30T01:16:56;12.30;73.80
78297;DHT22;67555;47.660;19.622;2023-09-30T01:19:23;12.30;73.80
78297;DHT22;67555;47.660;19.622;2023-09-30T01:21:59;12.40;73.80
78297;DHT22;67555;47.660;19.622;2023-09-30T01:24:26;12.40;73.70
78297;DHT22;67555;47.660;19.622;2023-09-30T01:26:52;12.30;73.90
78297;DHT22;67555;47.660;19.622;2023-09-30T01:29:18;12.30;74.00
78297;DHT22;67555;47.660;19.622;2023-09-30T01:31:44;12.30;74.00
78297;DHT22;67555;47.660;19.622;2023-09-30T01:34:13;12.40;73.90
78297;DHT22;67555;47.660;19.622;2023-09-30T01:36:40;12.50;73.60
78297;DHT22;67555;47.660;19.622;2023-09-30T01:39:05;12.50;73.20
78297;DHT22;67555;47.660;19.622;2023-09-30T01:41:32;12.50;73.20
78297;DHT22;67555;47.660;19.622;2023-09-30T01:43:58;12.50;73.10
78297;DHT22;67555;47.660;19.622;2023-09-30T01:46:24;12.60;73.00
78297;DHT22;67555;47.660;19.622;2023-09-30T01:48:50;12.70;72.70
78297;DHT22;67555;47.660;19.622;2023-09-30T01:51:15;12.70;72.50
78297;DHT22;67555;47.660;19.622;2023-09-30T01:53:42;12.50;72.90
78297;DHT22;67555;47.660;19.622;2023-09-30T01:56:08;12.50;73.30
78297;DHT22;67555;47.660;19.622;2023-09-30T01:58:34;12.30;73.50
78297;DHT22;67555;47.660;19.622;2023-09-30T02:01:03;12.20;73.80
78297;DHT22;67555;47.660;19.622;2023-09-30T02:03:29;12.20;74.20
78297;DHT22;67555;47.660;19.622;2023-09-30T02:06:00;12.20;74.20
78297;DHT22;67555;47.660;19.622;2023-09-30T02:08:26;12.20;74.50
78297;DHT22;67555;47.660;19.622;2023-09-30T02:10:52;12.20;74.80
78297;DHT22;67555;47.660;19.622;2023-09-30T02:13:18;12.20;74.70
78297;DHT22;67555;47.660;19.622;2023-09-30T02:15:44;12.30;74.80
78297;DHT22;67555;47.660;19.622;2023-09-30T02:18:10;12.40;74.70
78297;DHT22;67555;47.660;19.622;2023-09-30T02:20:37;12.50;74.70
78297;DHT22;67555;47.660;19.622;2023-09-30T02:23:10;12.50;74.50
78297;DHT22;67555;47.660;19.622;2023-09-30T02:25:41;12.50;74.30
78297;DHT22;67555;47.660;19.622;2023-09-30T02:28:09;12.40;74.20
78297;DHT22;67555;47.660;19.622;2023-09-30T02:30:36;12.20;74.40
78297;DHT22;67555;47.660;19.622;2023-09-30T02:33:02;12.00;74.90
78297;DHT22;67555;47.660;19.622;2023-09-30T02:35:28;11.90;75.20
78297;DHT22;67555;47.660;19.622;2023-09-30T02:37:55;11.80;75.50
78297;DHT22;67555;47.660;19.622;2023-09-30T02:40:21;11.70;75.80
78297;DHT22;67555;47.660;19.622;2023-09-30T02:42:50;11.70;75.90
78297;DHT22;67555;47.660;19.622;2023-09-30T02:45:17;11.70;75.70
78297;DHT22;67555;47.660;19.622;2023-09-30T02:47:42;11.70;75.70
78297;DHT22;67555;47.660;19.622;2023-09-30T02:50:09;11.70;75.70
78297;DHT22;67555;47.660;19.622;2023-09-30T02:52:38;11.60;75.90
78297;DHT22;67555;47.660;19.622;2023-09-30T02:55:07;11.60;75.80
78297;DHT22;67555;47.660;19.622;2023-09-30T02:57:33;11.60;75.70
78297;DHT22;67555;47.660;19.622;2023-09-30T03:00:05;11.50;75.90
78297;DHT22;67555;47.660;19.622;2023-09-30T03:02:57;11.50;75.80
78297;DHT22;67555;47.660;19.622;2023-09-30T03:05:23;11.50;75.70
78297;DHT22;67555;47.660;19.622;2023-09-30T03:07:49;11.70;75.50
78297;DHT22;67555;47.660;19.622;2023-09-30T03:10:16;11.70;75.30
78297;DHT22;67555;47.660;19.622;2023-09-30T03:12:56;11.70;75.10
78297;DHT22;67555;47.660;19.622;2023-09-30T03:15:22;11.80;75.00
78297;DHT22;67555;47.660;19.622;2023-09-30T03:17:48;11.70;75.30
78297;DHT22;67555;47.660;19.622;2023-09-30T03:20:14;11.70;75.40
78297;DHT22;67555;47.660;19.622;2023-09-30T03:22:44;11.60;75.50
78297;DHT22;67555;47.660;19.622;2023-09-30T03:25:13;11.50;75.70
78297;DHT22;67555;47.660;19.622;2023-09-30T03:27:40;11.50;76.00
78297;DHT22;67555;47.660;19.622;2023-09-30T03:30:07;11.40;76.20
78297;DHT22;67555;47.660;19.622;2023-09-30T03:32:34;11.50;76.20
78297;DHT22;67555;47.660;19.622;2023-09-30T03:35:05;11.60;75.90
78297;DHT22;67555;47.660;19.622;2023-09-30T03:37:32;11.70;75.50
78297;DHT22;67555;47.660;19.622;2023-09-30T03:39:57;11.70;75.50
78297;DHT22;67555;47.660;19.622;2023-09-30T03:42:23;11.70;75.50
78297;DHT22;67555;47.660;19.622;2023-09-30T03:44:49;11.70;75.50
78297;DHT22;67555;47.660;19.622;2023-09-30T03:47:16;11.70;75.50
78297;DHT22;67555;47.660;19.622;2023-09-30T03:49:42;11.70;75.40
78297;DHT22;67555;47.660;19.622;2023-09-30T03:52:09;11.70;75.40
78297;DHT22;67555;47.660;19.622;2023-09-30T03:54:35;11.70;75.50
78297;DHT22;67555;47.660;19.622;2023-09-30T03:57:01;11.70;75.60
78297;DHT22;67555;47.660;19.622;2023-09-30T03:59:27;11.70;75.60
78297;DHT22;67555;47.660;19.622;2023-09-30T04:01:53;11.70;75.70
78297;DHT22;67555;47.660;19.622;2023-09-30T04:04:19;11.70;75.70
78297;DHT22;67555;47.660;19.622;2023-09-30T04:06:47;11.80;75.70
78297;DHT22;67555;47.660;19.622;2023-09-30T04:09:13;11.80;75.70
78297;DHT22;67555;47.660;19.622;2023-09-30T04:11:41;11.80;75.90
78297;DHT22;67555;47.660;19.622;2023-09-30T04:14:08;11.70;76.00
78297;DHT22;67555;47.660;19.622;2023-09-30T04:16:35;11.80;76.20
78297;DHT22;67555;47.660;19.622;2023-09-30T04:19:02;11.90;76.10
78297;DHT22;67555;47.660;19.622;2023-09-30T04:21:28;11.90;76.00
78297;DHT22;67555;47.660;19.622;2023-09-30T04:23:55;11.90;76.20
78297;DHT22;67555;47.660;19.622;2023-09-30T04:26:21;11.90;76.20
78297;DHT22;67555;47.660;19.622;2023-09-30T04:28:52;12.00;76.10
78297;DHT22;67555;47.660;19.622;2023-09-30T04:31:19;12.10;75.80
78297;DHT22;67555;47.660;19.622;2023-09-30T04:33:48;12.10;75.80
78297;DHT22;67555;47.660;19.622;2023-09-30T04:36:13;12.20;75.60
78297;DHT22;67555;47.660;19.622;2023-09-30T04:38:39;12.20;75.70
78297;DHT22;67555;47.660;19.622;2023-09-30T04:41:05;12.20;75.70
78297;DHT22;67555;47.660;19.622;2023-09-30T04:43:33;12.30;75.50
78297;DHT22;67555;47.660;19.622;2023-09-30T04:45:59;12.40;75.30
78297;DHT22;67555;47.660;19.622;2023-09-30T04:48:25;12.50;75.30
78297;DHT22;67555;47.660;19.622;2023-09-30T04:50:51;12.50;75.20
78297;DHT22;67555;47.660;19.622;2023-09-30T04:53:17;12.50;75.20
78297;DHT22;67555;47.660;19.622;2023-09-30T04:55:46;12.50;75.30
78297;DHT22;67555;47.660;19.622;2023-09-30T04:58:14;12.30;75.60
78297;DHT22;67555;47.660;19.622;2023-09-30T05:00:40;12.20;75.90
78297;DHT22;67555;47.660;19.622;2023-09-30T05:03:06;12.10;76.00
78297;DHT22;67555;47.660;19.622;2023-09-30T05:05:32;12.10;76.00
78297;DHT22;67555;47.660;19.622;2023-09-30T05:07:59;12.10;76.10
78297;DHT22;67555;47.660;19.622;2023-09-30T05:10:25;12.20;76.00
78297;DHT22;67555;47.660;19.622;2023-09-30T05:12:51;12.20;75.90
78297;DHT22;67555;47.660;19.622;2023-09-30T05:15:20;12.30;75.70
78297;DHT22;67555;47.660;19.622;2023-09-30T05:17:47;12.50;75.40
78297;DHT22;67555;47.660;19.622;2023-09-30T05:20:13;12.60;74.90
78297;DHT22;67555;47.660;19.622;2023-09-30T05:22:43;12.70;74.80
78297;DHT22;67555;47.660;19.622;2023-09-30T05:25:11;12.70;74.80
78297;DHT22;67555;47.660;19.622;2023-09-30T05:27:37;12.80;74.80
78297;DHT22;67555;47.660;19.622;2023-09-30T05:30:04;12.80;74.70
78297;DHT22;67555;47.660;19.622;2023-09-30T05:32:31;12.90;74.70
78297;DHT22;67555;47.660;19.622;2023-09-30T05:35:01;13.00;74.60
78297;DHT22;67555;47.660;19.622;2023-09-30T05:37:31;13.00;74.50
78297;DHT22;67555;47.660;19.622;2023-09-30T05:39:56;13.00;74.60
78297;DHT22;67555;47.660;19.622;2023-09-30T05:42:23;13.10;74.70
78297;DHT22;67555;47.660;19.622;2023-09-30T05:44:50;13.10;74.70
78297;DHT22;67555;47.660;19.622;2023-09-30T05:47:16;13.30;74.60
78297;DHT22;67555;47.660;19.622;2023-09-30T05:49:42;13.40;74.50
78297;DHT22;67555;47.660;19.622;2023-09-30T05:52:08;13.50;74.20
78297;DHT22;67555;47.660;19.622;2023-09-30T05:54:34;13.60;74.00
78297;DHT22;67555;47.660;19.622;2023-09-30T05:56:59;13.90;73.70
78297;DHT22;67555;47.660;19.622;2023-09-30T05:59:26;13.90;73.50
78297;DHT22;67555;47.660;19.622;2023-09-30T06:01:53;14.00;73.50
78297;DHT22;67555;47.660;19.622;2023-09-30T06:04:19;14.10;73.50
78297;DHT22;67555;47.660;19.622;2023-09-30T06:06:46;14.20;73.40
78297;DHT22;67555;47.660;19.622;2023-09-30T06:09:12;14.30;73.20
78297;DHT22;67555;47.660;19.622;2023-09-30T06:11:39;14.50;73.00
78297;DHT22;67555;47.660;19.622;2023-09-30T06:14:06;14.60;72.90
78297;DHT22;67555;47.660;19.622;2023-09-30T06:16:33;14.80;72.80
78297;DHT22;67555;47.660;19.622;2023-09-30T06:19:00;14.90;72.50
78297;DHT22;67555;47.660;19.622;2023-09-30T06:21:25;15.10;72.20
78297;DHT22;67555;47.660;19.622;2023-09-30T06:23:55;15.30;71.80
78297;DHT22;67555;47.660;19.622;2023-09-30T06:26:21;15.60;71.50
78297;DHT22;67555;47.660;19.622;2023-09-30T06:28:47;15.80;71.20
78297;DHT22;67555;47.660;19.622;2023-09-30T06:31:14;15.90;70.80
78297;DHT22;67555;47.660;19.622;2023-09-30T06:33:40;16.00;70.50
78297;DHT22;67555;47.660;19.622;2023-09-30T06:36:13;16.20;70.20
78297;DHT22;67555;47.660;19.622;2023-09-30T06:38:43;16.40;69.90
78297;DHT22;67555;47.660;19.622;2023-09-30T06:41:09;16.60;69.50
78297;DHT22;67555;47.660;19.622;2023-09-30T06:43:40;16.80;69.20
78297;DHT22;67555;47.660;19.622;2023-09-30T06:46:07;17.00;68.80
78297;DHT22;67555;47.660;19.622;2023-09-30T06:48:35;17.20;68.40
78297;DHT22;67555;47.660;19.622;2023-09-30T06:51:01;17.50;67.80
78297;DHT22;67555;47.660;19.622;2023-09-30T06:53:27;17.60;67.40
78297;DHT22;67555;47.660;19.622;2023-09-30T06:55:53;17.80;67.00
78297;DHT22;67555;47.660;19.622;2023-09-30T06:58:18;18.00;66.60
78297;DHT22;67555;47.660;19.622;2023-09-30T07:00:50;18.30;66.30
78297;DHT22;67555;47.660;19.622;2023-09-30T07:03:17;18.50;65.80
78297;DHT22;67555;47.660;19.622;2023-09-30T07:05:43;18.80;65.40
78297;DHT22;67555;47.660;19.622;2023-09-30T07:08:12;19.00;64.70
78297;DHT22;67555;47.660;19.622;2023-09-30T07:10:38;19.20;64.50
78297;DHT22;67555;47.660;19.622;2023-09-30T07:13:04;19.40;64.10
78297;DHT22;67555;47.660;19.622;2023-09-30T07:15:32;19.70;63.80
78297;DHT22;67555;47.660;19.622;2023-09-30T07:17:57;20.00;63.30
78297;DHT22;67555;47.660;19.622;2023-09-30T07:20:23;20.30;63.00
78297;DHT22;67555;47.660;19.622;2023-09-30T07:22:50;20.50;62.60
78297;DHT22;67555;47.660;19.622;2023-09-30T07:25:17;20.60;62.30
78297;DHT22;67555;47.660;19.622;2023-09-30T07:27:44;20.80;62.00
78297;DHT22;67555;47.660;19.622;2023-09-30T07:30:13;21.00;61.50
78297;DHT22;67555;47.660;19.622;2023-09-30T07:32:43;21.10;61.20
78297;DHT22;67555;47.660;19.622;2023-09-30T07:35:10;21.10;60.90
78297;DHT22;67555;47.660;19.622;2023-09-30T07:37:36;21.20;60.70
78297;DHT22;67555;47.660;19.622;2023-09-30T07:40:02;21.30;60.30
78297;DHT22;67555;47.660;19.622;2023-09-30T07:42:28;21.40;60.10
78297;DHT22;67555;47.660;19.622;2023-09-30T07:44:54;21.50;60.00
78297;DHT22;67555;47.660;19.622;2023-09-30T07:47:20;21.50;59.80
78297;DHT22;67555;47.660;19.622;2023-09-30T07:49:45;21.60;59.60
78297;DHT22;67555;47.660;19.622;2023-09-30T07:52:12;21.70;59.30
78297;DHT22;67555;47.660;19.622;2023-09-30T07:54:38;21.70;58.90
78297;DHT22;67555;47.660;19.622;2023-09-30T07:57:03;21.80;58.80
78297;DHT22;67555;47.660;19.622;2023-09-30T07:59:30;21.90;58.70
78297;DHT22;67555;47.660;19.622;2023-09-30T08:01:55;21.90;58.50
78297;DHT22;67555;47.660;19.622;2023-09-30T08:04:22;22.00;58.20
78297;DHT22;67555;47.660;19.622;2023-09-30T08:06:49;22.10;58.20
78297;DHT22;67555;47.660;19.622;2023-09-30T08:09:16;22.20;57.90
78297;DHT22;67555;47.660;19.622;2023-09-30T08:11:44;22.30;57.80
78297;DHT22;67555;47.660;19.622;2023-09-30T08:14:10;22.40;57.70
78297;DHT22;67555;47.660;19.622;2023-09-30T08:16:37;22.50;57.60
78297;DHT22;67555;47.660;19.622;2023-09-30T08:19:03;22.60;57.20
78297;DHT22;67555;47.660;19.622;2023-09-30T08:21:29;22.70;56.90
78297;DHT22;67555;47.660;19.622;2023-09-30T08:24:01;22.70;56.80
78297;DHT22;67555;47.660;19.622;2023-09-30T08:26:30;22.70;56.60
78297;DHT22;67555;47.660;19.622;2023-09-30T08:28:56;22.70;56.40
78297;DHT22;67555;47.660;19.622;2023-09-30T08:31:23;22.70;56.50
78297;DHT22;67555;47.660;19.622;2023-09-30T08:33:49;22.80;56.50
78297;DHT22;67555;47.660;19.622;2023-09-30T08:36:15;22.80;56.40
78297;DHT22;67555;47.660;19.622;2023-09-30T08:38:41;22.90;56.00
78297;DHT22;67555;47.660;19.622;2023-09-30T08:41:07;23.10;55.50
78297;DHT22;67555;47.660;19.622;2023-09-30T08:43:40;23.10;55.00
78297;DHT22;67555;47.660;19.622;2023-09-30T08:46:07;23.20;54.70
78297;DHT22;67555;47.660;19.622;2023-09-30T08:48:34;23.30;54.50
78297;DHT22;67555;47.660;19.622;2023-09-30T08:51:00;23.40;54.30
78297;DHT22;67555;47.660;19.622;2023-09-30T08:53:28;23.50;54.00
78297;DHT22;67555;47.660;19.622;2023-09-30T08:55:55;23.60;53.20
78297;DHT22;67555;47.660;19.622;2023-09-30T08:58:27;23.60;52.70
78297;DHT22;67555;47.660;19.622;2023-09-30T09:00:53;23.60;52.70
78297;DHT22;67555;47.660;19.622;2023-09-30T09:03:20;23.60;52.70
78297;DHT22;67555;47.660;19.622;2023-09-30T09:05:53;23.60;52.30
78297;DHT22;67555;47.660;19.622;2023-09-30T09:08:19;23.60;52.10
78297;DHT22;67555;47.660;19.622;2023-09-30T09:11:01;23.60;52.30
78297;DHT22;67555;47.660;19.622;2023-09-30T09:13:28;23.70;52.30
78297;DHT22;67555;47.660;19.622;2023-09-30T09:16:10;23.80;52.10
78297;DHT22;67555;47.660;19.622;2023-09-30T09:18:36;23.90;52.00
78297;DHT22;67555;47.660;19.622;2023-09-30T09:21:10;24.00;51.80
78297;DHT22;67555;47.660;19.622;2023-09-30T09:23:43;24.20;51.60
78297;DHT22;67555;47.660;19.622;2023-09-30T09:26:31;24.40;51.50
78297;DHT22;67555;47.660;19.622;2023-09-30T09:29:03;24.60;51.00
78297;DHT22;67555;47.660;19.622;2023-09-30T09:31:35;24.80;50.70
78297;DHT22;67555;47.660;19.622;2023-09-30T09:34:14;25.00;50.00
78297;DHT22;67555;47.660;19.622;2023-09-30T09:36:44;25.30;49.50
78297;DHT22;67555;47.660;19.622;2023-09-30T09:39:14;25.40;49.20
78297;DHT22;67555;47.660;19.622;2023-09-30T09:41:52;25.50;48.80
78297;DHT22;67555;47.660;19.622;2023-09-30T09:44:20;25.40;48.20
78297;DHT22;67555;47.660;19.622;2023-09-30T09:46:48;25.40;48.00
78297;DHT22;67555;47.660;19.622;2023-09-30T09:49:17;25.30;47.70
78297;DHT22;67555;47.660;19.622;2023-09-30T09:51:45;25.10;46.20
78297;DHT22;67555;47.660;19.622;2023-09-30T09:54:12;25.00;46.50
78297;DHT22;67555;47.660;19.622;2023-09-30T09:56:39;24.80;46.80
78297;DHT22;67555;47.660;19.622;2023-09-30T09:59:05;24.80;47.20
78297;DHT22;67555;47.660;19.622;2023-09-30T10:01:33;24.70;46.70
78297;DHT22;67555;47.660;19.622;2023-09-30T10:04:00;24.60;47.30
78297;DHT22;67555;47.660;19.622;2023-09-30T10:06:27;24.70;47.30
78297;DHT22;67555;47.660;19.622;2023-09-30T10:08:54;24.90;47.20
78297;DHT22;67555;47.660;19.622;2023-09-30T10:11:22;25.00;47.20
78297;DHT22;67555;47.660;19.622;2023-09-30T10:13:58;25.30;47.10
78297;DHT22;67555;47.660;19.622;2023-09-30T10:21:37;25.80;46.20
78297;DHT22;67555;47.660;19.622;2023-09-30T10:29:40;26.00;44.20
78297;DHT22;67555;47.660;19.622;2023-09-30T10:32:09;26.00;44.10
78297;DHT22;67555;47.660;19.622;2023-09-30T10:34:34;26.00;44.30
78297;DHT22;67555;47.660;19.622;2023-09-30T10:37:22;26.00;44.30
78297;DHT22;67555;47.660;19.622;2023-09-30T10:39:56;26.00;44.10
78297;DHT22;67555;47.660;19.622;2023-09-30T10:42:46;25.70;44.40
78297;DHT22;67555;47.660;19.622;2023-09-30T10:50:54;25.50;44.40
78297;DHT22;67555;47.660;19.622;2023-09-30T10:53:22;25.30;44.70
78297;DHT22;67555;47.660;19.622;2023-09-30T10:56:01;25.20;44.80
78297;DHT22;67555;47.660;19.622;2023-09-30T10:58:38;25.20;44.90
78297;DHT22;67555;47.660;19.622;2023-09-30T11:01:04;25.20;44.70
78297;DHT22;67555;47.660;19.622;2023-09-30T11:03:30;25.20;44.80
78297;DHT22;67555;47.660;19.622;2023-09-30T11:05:56;25.10;44.60
78297;DHT22;67555;47.660;19.622;2023-09-30T11:08:22;25.00;44.10
78297;DHT22;67555;47.660;19.622;2023-09-30T11:10:52;24.80;44.00
78297;DHT22;67555;47.660;19.622;2023-09-30T11:13:20;24.60;44.00
78297;DHT22;67555;47.660;19.622;2023-09-30T11:15:46;24.50;43.90
78297;DHT22;67555;47.660;19.622;2023-09-30T11:18:17;24.50;44.30
78297;DHT22;67555;47.660;19.622;2023-09-30T11:20:44;24.40;44.20
78297;DHT22;67555;47.660;19.622;2023-09-30T11:23:12;24.40;44.60
78297;DHT22;67555;47.660;19.622;2023-09-30T11:25:38;24.40;44.80
78297;DHT22;67555;47.660;19.622;2023-09-30T11:28:16;24.40;45.10
78297;DHT22;67555;47.660;19.622;2023-09-30T11:30:59;24.40;45.10
78297;DHT22;67555;47.660;19.622;2023-09-30T11:33:25;24.40;45.10
78297;DHT22;67555;47.660;19.622;2023-09-30T11:36:05;24.40;45.00
78297;DHT22;67555;47.660;19.622;2023-09-30T11:38:34;24.30;44.90
78297;DHT22;67555;47.660;19.622;2023-09-30T11:41:06;24.20;45.00
78297;DHT22;67555;47.660;19.622;2023-09-30T11:43:33;24.10;45.00
78297;DHT22;67555;47.660;19.622;2023-09-30T11:46:10;24.00;45.20
78297;DHT22;67555;47.660;19.622;2023-09-30T11:49:02;24.00;45.20
78297;DHT22;67555;47.660;19.622;2023-09-30T11:51:29;23.80;45.20
78297;DHT22;67555;47.660;19.622;2023-09-30T11:53:55;23.70;45.60
78297;DHT22;67555;47.660;19.622;2023-09-30T11:56:22;23.60;45.80
78297;DHT22;67555;47.660;19.622;2023-09-30T11:58:53;23.60;46.40
78297;DHT22;67555;47.660;19.622;2023-09-30T12:01:19;23.50;46.90
78297;DHT22;67555;47.660;19.622;2023-09-30T12:03:47;23.40;47.20
78297;DHT22;67555;47.660;19.622;2023-09-30T12:06:14;23.40;47.40
78297;DHT22;67555;47.660;19.622;2023-09-30T12:08:42;23.40;47.40
78297;DHT22;67555;47.660;19.622;2023-09-30T12:11:08;23.40;47.30
78297;DHT22;67555;47.660;19.622;2023-09-30T12:13:33;23.40;47.30
78297;DHT22;67555;47.660;19.622;2023-09-30T12:15:59;23.50;47.50
78297;DHT22;67555;47.660;19.622;2023-09-30T12:18:25;23.50;47.70
78297;DHT22;67555;47.660;19.622;2023-09-30T12:20:52;23.50;47.90
78297;DHT22;67555;47.660;19.622;2023-09-30T12:23:19;23.50;48.10
78297;DHT22;67555;47.660;19.622;2023-09-30T12:25:46;23.40;48.60
78297;DHT22;67555;47.660;19.622;2023-09-30T12:28:12;23.30;49.40
78297;DHT22;67555;47.660;19.622;2023-09-30T12:30:40;23.10;49.70
78297;DHT22;67555;47.660;19.622;2023-09-30T12:33:06;23.00;50.00
78297;DHT22;67555;47.660;19.622;2023-09-30T12:35:32;23.00;50.00
78297;DHT22;67555;47.660;19.622;2023-09-30T12:37:58;22.90;50.30
78297;DHT22;67555;47.660;19.622;2023-09-30T12:40:24;22.90;50.50
78297;DHT22;67555;47.660;19.622;2023-09-30T12:42:50;23.00;50.30
78297;DHT22;67555;47.660;19.622;2023-09-30T12:45:16;23.00;50.20
78297;DHT22;67555;47.660;19.622;2023-09-30T12:47:44;23.00;50.20
78297;DHT22;67555;47.660;19.622;2023-09-30T12:50:10;23.00;50.30
78297;DHT22;67555;47.660;19.622;2023-09-30T12:52:36;22.90;50.50
78297;DHT22;67555;47.660;19.622;2023-09-30T12:55:04;22.90;50.60
78297;DHT22;67555;47.660;19.622;2023-09-30T12:57:30;22.90;50.90
78297;DHT22;67555;47.660;19.622;2023-09-30T12:59:57;22.90;51.10
78297;DHT22;67555;47.660;19.622;2023-09-30T13:02:23;22.90;51.40
78297;DHT22;67555;47.660;19.622;2023-09-30T13:04:49;22.90;51.70
78297;DHT22;67555;47.660;19.622;2023-09-30T13:07:15;23.00;51.90
78297;DHT22;67555;47.660;19.622;2023-09-30T13:09:41;22.90;52.00
78297;DHT22;67555;47.660;19.622;2023-09-30T13:12:07;22.80;52.20
78297;DHT22;67555;47.660;19.622;2023-09-30T13:14:34;22.70;52.20
78297;DHT22;67555;47.660;19.622;2023-09-30T13:17:00;22.60;52.10
78297;DHT22;67555;47.660;19.622;2023-09-30T13:19:26;22.50;52.10
78297;DHT22;67555;47.660;19.622;2023-09-30T13:21:52;22.50;52.10
78297;DHT22;67555;47.660;19.622;2023-09-30T13:24:22;22.40;52.20
78297;DHT22;67555;47.660;19.622;2023-09-30T13:26:48;22.30;52.40
78297;DHT22;67555;47.660;19.622;2023-09-30T13:29:15;22.20;53.00
78297;DHT22;67555;47.660;19.622;2023-09-30T13:31:42;22.10;53.30
78297;DHT22;67555;47.660;19.622;2023-09-30T13:34:08;22.10;53.10
78297;DHT22;67555;47.660;19.622;2023-09-30T13:36:35;22.10;53.10
78297;DHT22;67555;47.660;19.622;2023-09-30T13:39:01;22.00;52.60
78297;DHT22;67555;47.660;19.622;2023-09-30T13:41:27;22.00;52.30
78297;DHT22;67555;47.660;19.622;2023-09-30T13:43:53;21.90;51.90
78297;DHT22;67555;47.660;19.622;2023-09-30T13:46:18;21.90;51.80
78297;DHT22;67555;47.660;19.622;2023-09-30T13:48:47;21.90;51.70
78297;DHT22;67555;47.660;19.622;2023-09-30T13:51:16;21.80;51.70
78297;DHT22;67555;47.660;19.622;2023-09-30T13:53:42;21.90;51.20
78297;DHT22;67555;47.660;19.622;2023-09-30T13:56:08;21.90;51.30
78297;DHT22;67555;47.660;19.622;2023-09-30T13:58:36;21.90;51.50
78297;DHT22;67555;47.660;19.622;2023-09-30T14:01:02;21.90;51.40
78297;DHT22;67555;47.660;19.622;2023-09-30T14:03:28;21.90;51.40
78297;DHT22;67555;47.660;19.622;2023-09-30T14:05:55;22.10;51.40
78297;DHT22;67555;47.660;19.622;2023-09-30T14:08:24;22.10;51.00
78297;DHT22;67555;47.660;19.622;2023-09-30T14:10:50;22.10;51.00
78297;DHT22;67555;47.660;19.622;2023-09-30T14:13:20;22.10;51.00
78297;DHT22;67555;47.660;19.622;2023-09-30T14:15:45;22.00;51.00
78297;DHT22;67555;47.660;19.622;2023-09-30T14:18:12;22.00;50.90
78297;DHT22;67555;47.660;19.622;2023-09-30T14:20:38;22.00;50.80
78297;DHT22;67555;47.660;19.622;2023-09-30T14:23:03;21.90;51.00
78297;DHT22;67555;47.660;19.622;2023-09-30T14:25:29;21.90;51.10
78297;DHT22;67555;47.660;19.622;2023-09-30T14:27:55;21.80;51.50
78297;DHT22;67555;47.660;19.622;2023-09-30T14:30:21;21.80;51.70
78297;DHT22;67555;47.660;19.622;2023-09-30T14:32:47;21.80;51.90
78297;DHT22;67555;47.660;19.622;2023-09-30T14:35:13;21.90;52.00
78297;DHT22;67555;47.660;19.622;2023-09-30T14:37:39;21.90;52.20
78297;DHT22;67555;47.660;19.622;2023-09-30T14:40:06;21.90;52.20
78297;DHT22;67555;47.660;19.622;2023-09-30T14:42:39;21.90;52.10
78297;DHT22;67555;47.660;19.622;2023-09-30T14:45:08;21.90;52.10
78297;DHT22;67555;47.660;19.622;2023-09-30T14:47:34;21.90;52.20
78297;DHT22;67555;47.660;19.622;2023-09-30T14:49:59;21.90;52.40
78297;DHT22;67555;47.660;19.622;2023-09-30T14:52:28;21.90;52.50
78297;DHT22;67555;47.660;19.622;2023-09-30T14:54:54;21.90;52.70
78297;DHT22;67555;47.660;19.622;2023-09-30T14:57:20;21.90;52.80
78297;DHT22;67555;47.660;19.622;2023-09-30T14:59:47;22.00;52.90
78297;DHT22;67555;47.660;19.622;2023-09-30T15:02:13;21.90;53.20
78297;DHT22;67555;47.660;19.622;2023-09-30T15:04:39;21.90;53.40
78297;DHT22;67555;47.660;19.622;2023-09-30T15:07:05;21.80;53.70
78297;DHT22;67555;47.660;19.622;2023-09-30T15:09:31;21.70;54.10
78297;DHT22;67555;47.660;19.622;2023-09-30T15:11:57;21.70;54.30
78297;DHT22;67555;47.660;19.622;2023-09-30T15:14:23;21.70;54.60
78297;DHT22;67555;47.660;19.622;2023-09-30T15:16:49;21.60;54.80
78297;DHT22;67555;47.660;19.622;2023-09-30T15:19:15;21.60;55.10
78297;DHT22;67555;47.660;19.622;2023-09-30T15:21:40;21.50;55.30
78297;DHT22;67555;47.660;19.622;2023-09-30T15:24:07;21.50;55.50
78297;DHT22;67555;47.660;19.622;2023-09-30T15:26:33;21.50;55.50
78297;DHT22;67555;47.660;19.622;2023-09-30T15:29:00;21.50;55.70
78297;DHT22;67555;47.660;19.622;2023-09-30T15:31:32;21.40;55.80
78297;DHT22;67555;47.660;19.622;2023-09-30T15:33:59;21.40;55.90